createdAt,value
2017-09-28T00:02:02.385Z,32.40
2017-09-28T00:04:30.656Z,31.20
2017-09-28T00:06:59.127Z,32.40
2017-09-28T00:09:27.657Z,30.77
2017-09-28T00:11:55.118Z,32.17
2017-09-28T00:14:22.774Z,30.83
2017-09-28T00:16:50.446Z,31.20
2017-09-28T00:19:17.933Z,30.90
2017-09-28T00:21:45.593Z,29.80
2017-09-28T00:24:13.079Z,30.67
2017-09-28T00:26:41.536Z,31.80
2017-09-28T00:29:09.187Z,31.90
2017-09-28T00:31:36.719Z,32.07
2017-09-28T00:34:04.221Z,32.10
2017-09-28T00:36:31.732Z,32.77
2017-09-28T00:38:59.226Z,30.60
2017-09-28T00:41:26.721Z,31.67
2017-09-28T00:43:54.209Z,32.10
2017-09-28T00:46:22.108Z,29.97
2017-09-28T00:48:49.770Z,30.57
2017-09-28T00:51:17.250Z,29.70
2017-09-28T00:53:45.488Z,29.30
2017-09-28T00:56:13.327Z,30.87
2017-09-28T00:58:40.794Z,33.90
2017-09-28T01:01:08.302Z,32.93
2017-09-28T01:03:36.656Z,33.50
2017-09-28T01:06:04.799Z,33.00
2017-09-28T01:08:32.281Z,34.47
2017-09-28T01:10:59.967Z,31.93
2017-09-28T01:13:28.266Z,31.37
2017-09-28T01:15:55.736Z,33.30
2017-09-28T01:18:23.574Z,30.63
2017-09-28T01:20:51.814Z,29.67
2017-09-28T01:23:19.310Z,31.90
2017-09-28T01:25:47.673Z,34.03
2017-09-28T01:28:15.140Z,32.20
2017-09-28T01:30:43.458Z,33.07
2017-09-28T01:33:10.966Z,33.20
2017-09-28T01:35:38.511Z,34.17
2017-09-28T01:38:05.973Z,32.53
2017-09-28T01:40:33.827Z,32.37
2017-09-28T01:43:01.660Z,33.60
2017-09-28T01:45:29.215Z,32.20
2017-09-28T01:47:56.705Z,31.53
2017-09-28T01:50:24.239Z,34.30
2017-09-28T01:52:52.032Z,32.70
2017-09-28T01:55:19.505Z,35.07
2017-09-28T01:57:47.913Z,34.53
2017-09-28T02:00:16.183Z,31.10
2017-09-28T02:02:44.499Z,32.60
2017-09-28T02:05:11.960Z,34.50
2017-09-28T02:07:39.466Z,33.17
2017-09-28T02:10:07.754Z,33.50
2017-09-28T02:12:36.749Z,32.63
2017-09-28T02:15:05.045Z,31.40
2017-09-28T02:17:32.559Z,31.20
2017-09-28T02:20:00.029Z,30.50
2017-09-28T02:22:28.510Z,33.00
2017-09-28T02:24:56.746Z,31.67
2017-09-28T02:27:24.269Z,31.27
2017-09-28T02:29:52.561Z,33.30
2017-09-28T02:32:20.065Z,31.63
2017-09-28T02:34:47.538Z,32.83
2017-09-28T02:37:16.006Z,33.60
2017-09-28T02:39:44.979Z,34.70
2017-09-28T02:42:12.453Z,33.13
2017-09-28T02:44:40.324Z,33.67
2017-09-28T02:47:09.339Z,30.73
2017-09-28T02:49:37.558Z,33.50
2017-09-28T02:52:05.308Z,36.60
2017-09-28T02:54:32.787Z,36.20
2017-09-28T02:57:00.287Z,33.00
2017-09-28T02:59:28.525Z,32.17
2017-09-28T03:01:55.997Z,34.73
2017-09-28T03:04:24.237Z,34.10
2017-09-28T03:06:51.842Z,34.80
2017-09-28T03:09:20.085Z,32.97
2017-09-28T03:11:47.888Z,33.23
2017-09-28T03:14:15.461Z,31.90
2017-09-28T03:16:42.960Z,34.60
2017-09-28T03:19:10.613Z,32.07
2017-09-28T03:21:38.095Z,34.37
2017-09-28T03:24:05.578Z,35.73
2017-09-28T03:26:33.854Z,34.20
2017-09-28T03:29:02.717Z,37.23
2017-09-28T03:31:30.198Z,35.60
2017-09-28T03:33:58.749Z,33.97
2017-09-28T03:36:26.220Z,37.47
2017-09-28T03:38:54.274Z,36.77
2017-09-28T03:41:21.982Z,35.87
2017-09-28T03:43:50.221Z,35.40
2017-09-28T03:46:17.839Z,37.40
2017-09-28T03:48:45.364Z,39.90
2017-09-28T03:51:14.070Z,42.27
2017-09-28T03:53:41.590Z,36.97
2017-09-28T03:56:09.454Z,39.07
2017-09-28T03:58:36.977Z,38.27
2017-09-28T04:01:04.483Z,36.90
2017-09-28T04:03:32.150Z,39.93
2017-09-28T04:06:00.570Z,38.10
2017-09-28T04:08:28.969Z,36.23
2017-09-28T04:10:56.712Z,40.47
2017-09-28T04:13:24.236Z,35.13
2017-09-28T04:15:51.805Z,39.00
2017-09-28T04:18:20.515Z,39.30
2017-09-28T04:20:47.983Z,37.20
2017-09-28T04:23:16.268Z,39.60
2017-09-28T04:25:43.798Z,36.53
2017-09-28T04:28:11.273Z,35.70
2017-09-28T04:30:38.746Z,37.27
2017-09-28T04:33:06.781Z,34.37
2017-09-28T04:35:34.246Z,39.03
2017-09-28T04:38:01.703Z,37.30
2017-09-28T04:40:29.345Z,41.63
2017-09-28T04:42:57.638Z,36.10
2017-09-28T04:45:25.112Z,35.60
2017-09-28T04:47:52.714Z,37.10
2017-09-28T04:50:21.009Z,38.20
2017-09-28T04:52:49.247Z,35.67
2017-09-28T04:55:16.924Z,39.10
2017-09-28T04:57:44.390Z,38.70
2017-09-28T05:00:11.882Z,40.13
2017-09-28T05:02:39.538Z,39.73
2017-09-28T05:05:07.035Z,40.80
2017-09-28T05:07:34.500Z,37.73
2017-09-28T05:10:01.998Z,40.83
2017-09-28T05:12:30.742Z,38.37
2017-09-28T05:14:58.239Z,41.07
2017-09-28T05:17:26.501Z,42.80
2017-09-28T05:19:54.060Z,40.80
2017-09-28T05:22:21.557Z,43.27
2017-09-28T05:24:49.404Z,41.37
2017-09-28T05:27:17.762Z,43.13
2017-09-28T05:29:45.229Z,40.30
2017-09-28T05:32:13.853Z,39.50
2017-09-28T05:34:41.686Z,41.20
2017-09-28T05:37:10.068Z,39.60
2017-09-28T05:39:38.678Z,40.03
2017-09-28T05:42:06.168Z,42.00
2017-09-28T05:44:33.678Z,43.83
2017-09-28T05:47:01.417Z,44.23
2017-09-28T05:49:29.683Z,45.20
2017-09-28T05:51:57.246Z,43.63
2017-09-28T05:54:24.782Z,41.00
2017-09-28T05:56:52.309Z,41.90
2017-09-28T05:59:19.768Z,40.57
2017-09-28T06:01:47.496Z,41.77
2017-09-28T06:04:14.998Z,41.53
2017-09-28T06:06:42.464Z,41.43
2017-09-28T06:09:10.259Z,40.87
2017-09-28T06:11:37.791Z,40.43
2017-09-28T06:14:05.286Z,41.70
2017-09-28T06:16:32.978Z,37.27
2017-09-28T06:19:00.447Z,41.07
2017-09-28T06:21:28.173Z,41.13
2017-09-28T06:23:56.449Z,38.50
2017-09-28T06:26:24.042Z,37.67
2017-09-28T06:28:51.766Z,39.10
2017-09-28T06:31:20.023Z,37.30
2017-09-28T06:33:47.662Z,35.90
2017-09-28T06:36:16.059Z,38.30
2017-09-28T06:38:43.640Z,36.90
2017-09-28T06:41:11.183Z,40.10
2017-09-28T06:43:38.947Z,39.30
2017-09-28T06:46:06.433Z,37.60
2017-09-28T06:48:35.004Z,36.33
2017-09-28T06:51:02.679Z,39.17
2017-09-28T06:53:30.950Z,42.37
2017-09-28T06:55:59.174Z,41.97
2017-09-28T06:58:26.708Z,40.57
2017-09-28T07:00:54.212Z,37.47
2017-09-28T07:03:21.676Z,40.10
2017-09-28T07:05:49.369Z,40.17
2017-09-28T07:08:17.621Z,40.33
2017-09-28T07:10:45.232Z,39.70
2017-09-28T07:13:12.955Z,40.73
2017-09-28T07:15:41.231Z,36.67
2017-09-28T07:18:09.508Z,36.90
2017-09-28T07:20:38.569Z,37.57
2017-09-28T07:23:06.053Z,39.80
2017-09-28T07:25:33.672Z,34.47
2017-09-28T07:28:01.697Z,37.13
2017-09-28T07:30:30.073Z,38.03
2017-09-28T07:32:58.329Z,35.77
2017-09-28T07:35:25.907Z,36.10
2017-09-28T07:37:54.226Z,38.57
2017-09-28T07:40:21.731Z,40.43
2017-09-28T07:42:49.435Z,36.37
2017-09-28T07:45:16.964Z,35.70
2017-09-28T07:47:45.229Z,35.60
2017-09-28T07:50:12.865Z,36.60
2017-09-28T07:52:40.402Z,34.40
2017-09-28T07:55:07.977Z,30.77
2017-09-28T07:57:35.566Z,34.33
2017-09-28T08:00:03.044Z,33.80
2017-09-28T08:02:31.270Z,37.30
2017-09-28T08:04:59.010Z,32.20
2017-09-28T08:07:26.493Z,35.07
2017-09-28T08:09:53.983Z,34.00
2017-09-28T08:12:22.471Z,36.97
2017-09-28T08:14:50.742Z,33.10
2017-09-28T08:17:19.018Z,32.77
2017-09-28T08:19:47.857Z,33.33
2017-09-28T08:22:15.483Z,32.93
2017-09-28T08:24:42.987Z,35.27
2017-09-28T08:27:10.645Z,34.40
2017-09-28T08:29:38.114Z,32.60
2017-09-28T08:32:05.955Z,36.87
2017-09-28T08:34:33.633Z,35.83
2017-09-28T08:37:01.103Z,35.63
2017-09-28T08:39:28.640Z,36.03
2017-09-28T08:41:56.166Z,38.57
2017-09-28T08:44:24.414Z,37.80
2017-09-28T08:46:51.901Z,34.67
2017-09-28T08:49:19.634Z,37.00
2017-09-28T08:51:47.938Z,36.20
2017-09-28T08:54:16.170Z,36.77
2017-09-28T08:56:43.861Z,34.33
2017-09-28T08:59:12.141Z,35.10
2017-09-28T09:01:40.452Z,32.33
2017-09-28T09:04:08.404Z,30.10
2017-09-28T09:06:35.932Z,30.20
2017-09-28T09:09:03.427Z,27.30
2017-09-28T09:11:31.245Z,28.77
2017-09-28T09:13:58.830Z,28.70
2017-09-28T09:16:27.082Z,26.97
2017-09-28T09:18:54.998Z,26.63
2017-09-28T09:21:22.478Z,27.73
2017-09-28T09:23:50.033Z,26.40
2017-09-28T09:26:17.585Z,26.50
2017-09-28T09:28:45.058Z,27.37
2017-09-28T09:31:12.605Z,23.63
2017-09-28T09:33:40.129Z,25.43
2017-09-28T09:36:08.386Z,27.40
2017-09-28T09:38:36.642Z,27.27
2017-09-28T09:41:04.574Z,26.03
2017-09-28T09:43:32.071Z,27.70
2017-09-28T09:45:59.580Z,24.90
2017-09-28T09:48:27.216Z,24.83
2017-09-28T09:50:55.495Z,23.13
2017-09-28T09:53:23.726Z,22.53
2017-09-28T09:55:51.633Z,23.00
2017-09-28T09:58:20.044Z,23.00
2017-09-28T10:00:47.536Z,21.77
2017-09-28T10:03:15.325Z,22.00
2017-09-28T10:05:43.799Z,21.13
2017-09-28T10:08:16.203Z,21.57
2017-09-28T10:10:56.273Z,21.80
2017-09-28T10:13:26.676Z,19.73
2017-09-28T10:15:59.881Z,19.73
2017-09-28T10:18:27.376Z,19.57
2017-09-28T10:20:55.072Z,18.07
2017-09-28T10:23:22.576Z,18.83
2017-09-28T10:25:50.093Z,18.13
2017-09-28T10:28:18.401Z,18.47
2017-09-28T10:30:45.933Z,17.03
2017-09-28T10:33:14.407Z,16.60
2017-09-28T10:35:42.832Z,16.20
2017-09-28T10:38:10.605Z,17.27
2017-09-28T10:40:38.157Z,16.17
2017-09-28T10:43:06.478Z,15.83
2017-09-28T10:45:46.338Z,14.37
2017-09-28T10:48:14.614Z,15.07
2017-09-28T10:50:43.787Z,15.37
2017-09-28T10:53:11.286Z,13.97
2017-09-28T10:55:39.425Z,15.80
2017-09-28T10:58:06.898Z,14.60
2017-09-28T11:00:35.176Z,14.80
2017-09-28T11:03:03.430Z,16.47
2017-09-28T11:05:30.906Z,16.03
2017-09-28T11:07:59.221Z,16.00
2017-09-28T11:10:26.697Z,15.90
2017-09-28T11:12:54.214Z,15.87
2017-09-28T11:15:21.754Z,12.77
2017-09-28T11:17:50.066Z,16.67
2017-09-28T11:20:17.535Z,14.37
2017-09-28T11:22:45.247Z,15.10
2017-09-28T11:25:12.710Z,15.53
2017-09-28T11:27:41.196Z,16.17
2017-09-28T11:30:09.668Z,16.70
2017-09-28T11:32:37.951Z,16.40
2017-09-28T11:35:06.250Z,14.80
2017-09-28T11:37:33.916Z,16.43
2017-09-28T11:40:01.417Z,14.10
2017-09-28T11:42:29.428Z,14.03
2017-09-28T11:44:57.674Z,16.00
2017-09-28T11:47:25.163Z,14.00
2017-09-28T11:49:53.687Z,14.90
2017-09-28T11:52:21.181Z,13.50
2017-09-28T11:54:49.452Z,14.37
2017-09-28T11:57:17.118Z,14.03
2017-09-28T11:59:44.681Z,13.80
2017-09-28T12:02:12.267Z,13.37
2017-09-28T12:04:39.893Z,13.60
2017-09-28T12:07:07.378Z,14.57
2017-09-28T12:09:35.830Z,12.83
2017-09-28T12:12:03.533Z,13.23
2017-09-28T12:14:30.995Z,12.50
2017-09-28T12:16:58.473Z,11.87
2017-09-28T12:19:26.170Z,12.50
2017-09-28T12:21:54.478Z,13.17
2017-09-28T12:24:22.478Z,11.40
2017-09-28T12:26:50.096Z,12.00
2017-09-28T12:29:18.336Z,11.20
2017-09-28T12:31:45.895Z,11.27
2017-09-28T12:34:14.446Z,10.93
2017-09-28T12:36:41.978Z,10.23
2017-09-28T12:39:10.210Z,10.43
2017-09-28T12:41:37.915Z,9.77
2017-09-28T12:44:05.374Z,10.37
2017-09-28T12:46:32.875Z,10.97
2017-09-28T12:49:00.679Z,11.27
2017-09-28T12:51:28.934Z,10.80
2017-09-28T12:53:56.948Z,10.03
2017-09-28T12:56:34.558Z,11.77
2017-09-28T12:59:02.059Z,13.13
2017-09-28T13:01:29.540Z,10.67
2017-09-28T13:03:58.022Z,9.93
2017-09-28T13:06:26.846Z,11.80
2017-09-28T13:08:54.378Z,11.83
2017-09-28T13:11:23.227Z,13.13
2017-09-28T13:13:50.854Z,10.33
2017-09-28T13:16:18.328Z,10.33
2017-09-28T13:18:46.039Z,10.87
2017-09-28T13:21:14.312Z,9.40
2017-09-28T13:23:42.562Z,9.20
2017-09-28T13:26:20.968Z,9.30
2017-09-28T13:28:48.467Z,10.57
2017-09-28T13:31:16.751Z,9.87
2017-09-28T13:33:45.022Z,8.80
2017-09-28T13:36:13.240Z,8.17
2017-09-28T13:38:40.745Z,7.50
2017-09-28T13:41:09.273Z,9.10
2017-09-28T13:43:37.417Z,9.20
2017-09-28T13:46:04.895Z,8.50
2017-09-28T13:48:32.394Z,7.40
2017-09-28T13:50:59.867Z,8.60
2017-09-28T13:53:28.108Z,8.57
2017-09-28T13:55:55.859Z,9.07
2017-09-28T13:58:23.333Z,8.27
2017-09-28T14:00:50.814Z,8.20
2017-09-28T14:03:19.346Z,8.23
2017-09-28T14:05:46.905Z,8.20
2017-09-28T14:08:14.570Z,8.63
2017-09-28T14:10:42.113Z,8.17
2017-09-28T14:13:09.581Z,7.30
2017-09-28T14:15:37.121Z,9.30
2017-09-28T14:18:04.860Z,7.87
2017-09-28T14:20:32.340Z,8.57
2017-09-28T14:22:59.827Z,8.20
2017-09-28T14:25:27.997Z,8.97
2017-09-28T14:27:55.482Z,9.00
2017-09-28T14:30:22.978Z,9.20
2017-09-28T14:32:50.770Z,8.90
2017-09-28T14:35:18.362Z,9.53
2017-09-28T14:37:45.859Z,8.90
2017-09-28T14:40:14.339Z,9.17
2017-09-28T14:42:42.601Z,9.10
2017-09-28T14:45:10.080Z,9.03
2017-09-28T14:47:37.630Z,10.23
2017-09-28T14:50:05.902Z,8.90
2017-09-28T14:52:34.192Z,9.00
2017-09-28T14:55:02.792Z,9.57
2017-09-28T14:57:30.298Z,9.70
2017-09-28T14:59:57.777Z,10.63
2017-09-28T15:02:26.046Z,9.67
2017-09-28T15:04:54.296Z,10.60
2017-09-28T15:07:21.801Z,10.10
2017-09-28T15:09:50.147Z,10.83
2017-09-28T15:12:18.408Z,11.20
2017-09-28T15:14:45.911Z,10.93
2017-09-28T15:17:13.426Z,9.97
2017-09-28T15:19:40.929Z,10.60
2017-09-28T15:22:08.430Z,10.30
2017-09-28T15:24:36.166Z,11.17
2017-09-28T15:27:03.663Z,9.83
2017-09-28T15:29:31.177Z,10.30
2017-09-28T15:31:58.673Z,10.87
2017-09-28T15:34:26.180Z,10.03
2017-09-28T15:36:53.676Z,9.93
2017-09-28T15:39:21.418Z,10.30
2017-09-28T15:41:48.905Z,8.60
2017-09-28T15:44:16.384Z,9.00
2017-09-28T15:46:44.069Z,7.73
2017-09-28T15:49:13.170Z,8.40
2017-09-28T15:51:41.432Z,8.10
2017-09-28T15:54:09.927Z,9.60
2017-09-28T15:56:38.231Z,8.87
2017-09-28T15:59:05.739Z,8.03
2017-09-28T16:01:33.246Z,9.20
2017-09-28T16:04:00.758Z,8.03
2017-09-28T16:06:29.105Z,7.27
2017-09-28T16:08:58.153Z,7.93
2017-09-28T16:11:25.717Z,7.30
2017-09-28T16:13:53.222Z,5.97
2017-09-28T16:16:20.794Z,7.87
2017-09-28T16:18:48.282Z,7.10
2017-09-28T16:21:15.893Z,6.13
2017-09-28T16:23:43.376Z,6.10
2017-09-28T16:26:10.979Z,6.00
2017-09-28T16:28:38.460Z,7.33
2017-09-28T16:31:05.961Z,6.50
2017-09-28T16:33:33.590Z,6.87
2017-09-28T16:36:01.085Z,6.80
2017-09-28T16:38:29.353Z,6.87
2017-09-28T16:40:57.483Z,6.80
2017-09-28T16:43:24.975Z,6.47
2017-09-28T16:45:52.496Z,6.17
2017-09-28T16:48:20.068Z,6.10
2017-09-28T16:50:47.562Z,5.80
2017-09-28T16:53:15.875Z,6.77
2017-09-28T16:55:43.461Z,5.73
2017-09-28T16:58:11.047Z,6.53
2017-09-28T17:00:39.592Z,6.53
2017-09-28T17:03:07.426Z,8.17
2017-09-28T17:05:34.971Z,7.30
2017-09-28T17:08:03.227Z,8.13
2017-09-28T17:10:30.758Z,8.90
2017-09-28T17:12:58.242Z,7.13
2017-09-28T17:15:25.818Z,7.27
2017-09-28T17:17:53.364Z,7.47
2017-09-28T17:20:20.823Z,6.80
2017-09-28T17:22:49.108Z,9.03
2017-09-28T17:25:17.518Z,7.47
2017-09-28T17:27:45.062Z,10.23
2017-09-28T17:30:13.353Z,8.73
2017-09-28T17:32:41.295Z,9.57
2017-09-28T17:35:10.151Z,9.03
2017-09-28T17:37:38.107Z,10.50
2017-09-28T17:40:07.401Z,8.30
2017-09-28T17:42:34.905Z,9.00
2017-09-28T17:45:03.821Z,9.50
2017-09-28T17:47:31.823Z,10.30
2017-09-28T17:49:59.437Z,10.87
2017-09-28T17:52:27.038Z,10.37
2017-09-28T17:54:54.766Z,11.77
2017-09-28T17:57:22.276Z,10.10
2017-09-28T17:59:49.765Z,10.47
2017-09-28T18:02:18.246Z,11.07
2017-09-28T18:04:47.498Z,11.90
2017-09-28T18:07:15.033Z,11.40
2017-09-28T18:09:43.718Z,11.73
2017-09-28T18:12:11.328Z,10.50
2017-09-28T18:14:39.105Z,9.93
2017-09-28T18:17:06.611Z,10.63
2017-09-28T18:19:34.170Z,9.43
2017-09-28T18:22:01.682Z,8.87
2017-09-28T18:24:32.872Z,10.40
2017-09-28T18:27:00.358Z,10.27
2017-09-28T18:29:27.894Z,9.50
2017-09-28T18:31:55.392Z,10.60
2017-09-28T18:34:22.870Z,11.67
2017-09-28T18:36:51.407Z,11.07
2017-09-28T18:39:18.880Z,10.83
2017-09-28T18:41:46.399Z,10.90
2017-09-28T18:44:13.912Z,12.53
2017-09-28T18:46:42.168Z,11.67
2017-09-28T18:49:10.006Z,12.40
2017-09-28T18:51:37.507Z,13.20
2017-09-28T18:54:04.993Z,13.10
2017-09-28T18:56:33.330Z,12.70
2017-09-28T18:59:00.983Z,14.00
2017-09-28T19:01:38.912Z,14.63
2017-09-28T19:04:07.219Z,12.53
2017-09-28T19:06:34.723Z,14.57
2017-09-28T19:09:02.220Z,16.27
2017-09-28T19:11:30.527Z,13.87
2017-09-28T19:13:58.364Z,13.23
2017-09-28T19:16:26.616Z,15.30
2017-09-28T19:18:54.089Z,13.43
2017-09-28T19:21:22.376Z,14.80
2017-09-28T19:23:50.681Z,14.30
2017-09-28T19:26:18.442Z,13.40
2017-09-28T19:28:46.034Z,15.50
2017-09-28T19:31:13.540Z,15.73
2017-09-28T19:33:41.082Z,15.73
2017-09-28T19:36:09.367Z,15.80
2017-09-28T19:38:37.905Z,19.37
2017-09-28T19:41:05.463Z,19.30
2017-09-28T19:43:33.966Z,32.30
2017-09-28T19:46:02.359Z,38.07
2017-09-28T19:48:30.603Z,33.60
2017-09-28T19:51:00.240Z,22.40
2017-09-28T19:53:28.518Z,24.23
2017-09-28T19:55:57.010Z,28.70
2017-09-28T19:58:25.343Z,32.10
2017-09-28T20:00:52.918Z,43.17
2017-09-28T20:03:21.229Z,45.23
2017-09-28T20:05:49.557Z,27.17
2017-09-28T20:08:17.084Z,29.33
2017-09-28T20:10:44.668Z,29.60
2017-09-28T20:13:12.179Z,26.53
2017-09-28T20:15:40.558Z,56.13
2017-09-28T20:18:08.801Z,36.33
2017-09-28T20:20:36.326Z,43.50
2017-09-28T20:23:03.909Z,41.63
2017-09-28T20:25:31.543Z,42.47
2017-09-28T20:27:59.148Z,23.47
2017-09-28T20:30:26.639Z,33.87
2017-09-28T20:32:54.170Z,36.47
2017-09-28T20:35:21.737Z,47.20
2017-09-28T20:37:50.006Z,43.27
2017-09-28T20:40:18.289Z,36.10
2017-09-28T20:42:46.530Z,34.57
2017-09-28T20:45:14.027Z,22.03
2017-09-28T20:47:42.496Z,32.30
2017-09-28T20:50:10.766Z,25.10
2017-09-28T20:52:39.022Z,23.73
2017-09-28T20:55:06.547Z,27.63
2017-09-28T20:57:34.101Z,27.67
2017-09-28T21:00:01.722Z,25.13
2017-09-28T21:02:29.198Z,20.80
2017-09-28T21:04:57.495Z,20.10
2017-09-28T21:07:25.014Z,20.67
2017-09-28T21:09:52.488Z,20.30
2017-09-28T21:12:21.043Z,20.40
2017-09-28T21:14:48.596Z,18.77
2017-09-28T21:17:16.425Z,20.20
2017-09-28T21:19:44.815Z,20.30
2017-09-28T21:22:12.328Z,18.00
2017-09-28T21:24:40.576Z,19.50
2017-09-28T21:27:09.530Z,18.17
2017-09-28T21:29:37.056Z,19.60
2017-09-28T21:32:05.531Z,17.93
2017-09-28T21:34:33.801Z,17.10
2017-09-28T21:37:02.182Z,16.73
2017-09-28T21:39:31.167Z,19.63
2017-09-28T21:41:59.402Z,17.80
2017-09-28T21:44:26.918Z,18.80
2017-09-28T21:46:55.325Z,15.00
2017-09-28T21:49:22.801Z,16.37
2017-09-28T21:51:50.699Z,15.87
2017-09-28T21:54:28.144Z,16.33
2017-09-28T21:56:55.760Z,15.53
2017-09-28T21:59:23.218Z,17.60
2017-09-28T22:01:51.459Z,17.00
2017-09-28T22:04:19.020Z,17.57
2017-09-28T22:06:46.557Z,18.73
2017-09-28T22:09:14.283Z,18.50
2017-09-28T22:11:42.523Z,17.23
2017-09-28T22:14:10.013Z,17.97
2017-09-28T22:16:38.321Z,17.77
2017-09-28T22:19:05.835Z,17.40
2017-09-28T22:21:33.503Z,19.13
2017-09-28T22:24:02.042Z,18.03
2017-09-28T22:26:29.500Z,18.97
2017-09-28T22:28:56.965Z,19.40
2017-09-28T22:31:24.459Z,18.30
2017-09-28T22:33:52.864Z,19.37
2017-09-28T22:36:20.332Z,19.40
2017-09-28T22:38:48.784Z,18.33
2017-09-28T22:41:17.246Z,19.63
2017-09-28T22:43:45.537Z,18.27
2017-09-28T22:46:14.015Z,19.00
2017-09-28T22:48:42.281Z,20.07
2017-09-28T22:51:11.733Z,21.00
2017-09-28T22:53:39.367Z,22.37
2017-09-28T22:56:07.032Z,23.30
2017-09-28T22:58:35.302Z,22.57
2017-09-28T23:01:02.794Z,23.93
2017-09-28T23:03:30.302Z,22.43
2017-09-28T23:05:58.624Z,24.47
2017-09-28T23:08:26.089Z,23.40
2017-09-28T23:10:53.890Z,20.63
2017-09-28T23:13:22.029Z,19.10
2017-09-28T23:15:49.510Z,21.07
2017-09-28T23:18:17.037Z,20.67
2017-09-28T23:20:44.540Z,19.00
2017-09-28T23:23:12.231Z,19.80
2017-09-28T23:25:40.649Z,19.27
2017-09-28T23:28:08.198Z,19.73
2017-09-28T23:30:35.675Z,20.90
2017-09-28T23:33:03.186Z,21.30
2017-09-28T23:35:31.641Z,20.40
2017-09-28T23:37:59.933Z,19.50
2017-09-28T23:40:28.194Z,21.20
2017-09-28T23:42:56.517Z,19.57
2017-09-28T23:45:24.777Z,19.60
2017-09-28T23:47:52.613Z,17.20
2017-09-28T23:50:20.132Z,17.50
2017-09-28T23:52:47.644Z,17.67
2017-09-28T23:55:15.951Z,17.67
2017-09-28T23:57:43.681Z,16.87
